sensor_id;sensor_type;location;lat;lon;timestamp;temperature;humidity
3528;DHT22;1778;47.966;7.854;2023-02-28T00:00:10;0.90;99.80
3528;DHT22;1778;47.966;7.854;2023-02-28T00:01:13;0.90;99.50
3528;DHT22;1778;47.966;7.854;2023-02-28T00:02:16;0.90;99.50
3528;DHT22;1778;47.966;7.854;2023-02-28T00:03:21;0.90;99.70
3528;DHT22;1778;47.966;7.854;2023-02-28T00:04:22;0.90;99.90
3528;DHT22;1778;47.966;7.854;2023-02-28T00:05:25;0.90;99.90
3528;DHT22;1778;47.966;7.854;2023-02-28T00:06:27;1.00;99.90
3528;DHT22;1778;47.966;7.854;2023-02-28T00:07:30;1.00;99.90
3528;DHT22;1778;47.966;7.854;2023-02-28T00:08:31;1.00;99.90
3528;DHT22;1778;47.966;7.854;2023-02-28T00:09:33;1.00;99.90
3528;DHT22;1778;47.966;7.854;2023-02-28T00:10:34;1.00;99.90
3528;DHT22;1778;47.966;7.854;2023-02-28T00:11:36;1.00;99.90
3528;DHT22;1778;47.966;7.854;2023-02-28T00:12:39;1.00;99.90
3528;DHT22;1778;47.966;7.854;2023-02-28T00:13:42;1.00;99.90
3528;DHT22;1778;47.966;7.854;2023-02-28T00:14:44;1.00;99.90
3528;DHT22;1778;47.966;7.854;2023-02-28T00:15:46;1.00;99.90
3528;DHT22;1778;47.966;7.854;2023-02-28T00:16:47;1.00;99.90
3528;DHT22;1778;47.966;7.854;2023-02-28T00:17:49;1.00;99.90
3528;DHT22;1778;47.966;7.854;2023-02-28T00:18:51;1.00;99.90
3528;DHT22;1778;47.966;7.854;2023-02-28T00:19:52;1.00;99.90
3528;DHT22;1778;47.966;7.854;2023-02-28T00:20:54;1.10;99.90
3528;DHT22;1778;47.966;7.854;2023-02-28T00:21:56;1.10;99.90
3528;DHT22;1778;47.966;7.854;2023-02-28T00:22:57;1.10;99.90
3528;DHT22;1778;47.966;7.854;2023-02-28T00:23:59;1.10;99.90
3528;DHT22;1778;47.966;7.854;2023-02-28T00:25:00;1.10;99.90
3528;DHT22;1778;47.966;7.854;2023-02-28T00:26:02;1.10;99.90
3528;DHT22;1778;47.966;7.854;2023-02-28T00:27:03;1.10;99.90
3528;DHT22;1778;47.966;7.854;2023-02-28T00:28:05;1.10;99.90
3528;DHT22;1778;47.966;7.854;2023-02-28T00:29:06;1.20;99.90
3528;DHT22;1778;47.966;7.854;2023-02-28T00:30:11;1.10;99.90
3528;DHT22;1778;47.966;7.854;2023-02-28T00:31:13;1.20;99.90
3528;DHT22;1778;47.966;7.854;2023-02-28T00:32:15;1.20;99.90
3528;DHT22;1778;47.966;7.854;2023-02-28T00:33:16;1.20;99.90
3528;DHT22;1778;47.966;7.854;2023-02-28T00:34:18;1.30;99.90
3528;DHT22;1778;47.966;7.854;2023-02-28T00:35:20;1.30;99.90
3528;DHT22;1778;47.966;7.854;2023-02-28T00:36:21;1.20;99.90
3528;DHT22;1778;47.966;7.854;2023-02-28T00:37:23;1.30;99.90
3528;DHT22;1778;47.966;7.854;2023-02-28T00:38:25;1.30;99.90
3528;DHT22;1778;47.966;7.854;2023-02-28T00:39:27;1.30;99.90
3528;DHT22;1778;47.966;7.854;2023-02-28T00:40:30;1.30;99.90
3528;DHT22;1778;47.966;7.854;2023-02-28T00:41:31;1.30;99.90
3528;DHT22;1778;47.966;7.854;2023-02-28T00:42:34;1.30;99.90
3528;DHT22;1778;47.966;7.854;2023-02-28T00:43:37;1.40;99.90
3528;DHT22;1778;47.966;7.854;2023-02-28T00:44:39;1.30;99.90
3528;DHT22;1778;47.966;7.854;2023-02-28T00:45:40;1.30;99.90
3528;DHT22;1778;47.966;7.854;2023-02-28T00:46:42;1.30;99.90
3528;DHT22;1778;47.966;7.854;2023-02-28T00:47:43;1.20;99.90
3528;DHT22;1778;47.966;7.854;2023-02-28T00:48:45;1.20;99.90
3528;DHT22;1778;47.966;7.854;2023-02-28T00:49:46;1.30;99.90
3528;DHT22;1778;47.966;7.854;2023-02-28T00:50:49;1.30;99.90
3528;DHT22;1778;47.966;7.854;2023-02-28T00:51:51;1.30;99.90
3528;DHT22;1778;47.966;7.854;2023-02-28T00:52:53;1.30;99.90
3528;DHT22;1778;47.966;7.854;2023-02-28T00:53:54;1.30;99.90
3528;DHT22;1778;47.966;7.854;2023-02-28T00:54:57;1.30;99.90
3528;DHT22;1778;47.966;7.854;2023-02-28T00:55:59;1.30;99.90
3528;DHT22;1778;47.966;7.854;2023-02-28T00:57:01;1.30;99.90
3528;DHT22;1778;47.966;7.854;2023-02-28T00:58:02;1.30;99.90
3528;DHT22;1778;47.966;7.854;2023-02-28T00:59:04;1.20;99.80
3528;DHT22;1778;47.966;7.854;2023-02-28T01:00:06;1.10;99.90
3528;DHT22;1778;47.966;7.854;2023-02-28T01:01:08;1.20;99.90
3528;DHT22;1778;47.966;7.854;2023-02-28T01:02:11;1.20;99.90
3528;DHT22;1778;47.966;7.854;2023-02-28T01:03:13;1.20;99.90
3528;DHT22;1778;47.966;7.854;2023-02-28T01:04:15;1.10;99.90
3528;DHT22;1778;47.966;7.854;2023-02-28T01:05:16;1.10;99.90
3528;DHT22;1778;47.966;7.854;2023-02-28T01:06:19;1.10;99.90
3528;DHT22;1778;47.966;7.854;2023-02-28T01:07:20;1.10;99.90
3528;DHT22;1778;47.966;7.854;2023-02-28T01:08:22;1.10;99.90
3528;DHT22;1778;47.966;7.854;2023-02-28T01:09:24;1.10;99.90
3528;DHT22;1778;47.966;7.854;2023-02-28T01:10:27;1.10;99.90
3528;DHT22;1778;47.966;7.854;2023-02-28T01:11:33;1.10;99.90
3528;DHT22;1778;47.966;7.854;2023-02-28T01:12:35;1.10;99.90
3528;DHT22;1778;47.966;7.854;2023-02-28T01:13:36;1.20;99.90
3528;DHT22;1778;47.966;7.854;2023-02-28T01:14:38;1.30;99.90
3528;DHT22;1778;47.966;7.854;2023-02-28T01:15:43;1.20;99.90
3528;DHT22;1778;47.966;7.854;2023-02-28T01:16:46;1.20;99.90
3528;DHT22;1778;47.966;7.854;2023-02-28T01:17:48;1.20;99.90
3528;DHT22;1778;47.966;7.854;2023-02-28T01:18:50;1.20;99.90
3528;DHT22;1778;47.966;7.854;2023-02-28T01:19:54;1.20;99.90
3528;DHT22;1778;47.966;7.854;2023-02-28T01:21:06;1.10;99.90
3528;DHT22;1778;47.966;7.854;2023-02-28T01:22:08;1.10;99.90
3528;DHT22;1778;47.966;7.854;2023-02-28T01:23:10;1.10;99.90
3528;DHT22;1778;47.966;7.854;2023-02-28T01:24:13;1.10;99.90
3528;DHT22;1778;47.966;7.854;2023-02-28T01:25:14;1.10;99.90
3528;DHT22;1778;47.966;7.854;2023-02-28T01:26:22;1.10;99.90
3528;DHT22;1778;47.966;7.854;2023-02-28T01:27:24;1.10;99.90
3528;DHT22;1778;47.966;7.854;2023-02-28T01:28:26;1.10;99.90
3528;DHT22;1778;47.966;7.854;2023-02-28T01:29:28;1.00;99.90
3528;DHT22;1778;47.966;7.854;2023-02-28T01:30:30;1.00;99.90
3528;DHT22;1778;47.966;7.854;2023-02-28T01:31:31;1.00;99.90
3528;DHT22;1778;47.966;7.854;2023-02-28T01:32:33;1.00;99.90
3528;DHT22;1778;47.966;7.854;2023-02-28T01:33:36;1.00;99.90
3528;DHT22;1778;47.966;7.854;2023-02-28T01:34:38;1.10;99.90
3528;DHT22;1778;47.966;7.854;2023-02-28T01:35:40;1.20;99.90
3528;DHT22;1778;47.966;7.854;2023-02-28T01:36:42;1.20;99.90
3528;DHT22;1778;47.966;7.854;2023-02-28T01:37:44;1.20;99.90
3528;DHT22;1778;47.966;7.854;2023-02-28T01:38:47;1.10;99.90
3528;DHT22;1778;47.966;7.854;2023-02-28T01:39:48;1.10;99.90
3528;DHT22;1778;47.966;7.854;2023-02-28T01:40:50;1.10;99.90
3528;DHT22;1778;47.966;7.854;2023-02-28T01:41:52;1.00;99.90
3528;DHT22;1778;47.966;7.854;2023-02-28T01:42:53;1.10;99.90
3528;DHT22;1778;47.966;7.854;2023-02-28T01:44:06;1.10;99.90
3528;DHT22;1778;47.966;7.854;2023-02-28T01:45:25;1.10;99.90
3528;DHT22;1778;47.966;7.854;2023-02-28T01:46:27;1.00;99.90
3528;DHT22;1778;47.966;7.854;2023-02-28T01:47:35;1.00;99.90
3528;DHT22;1778;47.966;7.854;2023-02-28T01:48:45;1.00;99.90
3528;DHT22;1778;47.966;7.854;2023-02-28T01:49:49;1.00;99.90
3528;DHT22;1778;47.966;7.854;2023-02-28T01:50:54;1.00;99.90
3528;DHT22;1778;47.966;7.854;2023-02-28T01:51:56;1.00;99.90
3528;DHT22;1778;47.966;7.854;2023-02-28T01:53:01;1.00;99.90
3528;DHT22;1778;47.966;7.854;2023-02-28T01:54:15;1.00;99.90
3528;DHT22;1778;47.966;7.854;2023-02-28T01:55:19;1.00;99.90
3528;DHT22;1778;47.966;7.854;2023-02-28T01:56:29;1.00;99.90
3528;DHT22;1778;47.966;7.854;2023-02-28T01:57:35;1.00;99.90
3528;DHT22;1778;47.966;7.854;2023-02-28T01:58:39;1.00;99.90
3528;DHT22;1778;47.966;7.854;2023-02-28T01:59:45;1.10;99.90
3528;DHT22;1778;47.966;7.854;2023-02-28T02:00:52;1.10;99.90
3528;DHT22;1778;47.966;7.854;2023-02-28T02:01:54;1.20;99.90
3528;DHT22;1778;47.966;7.854;2023-02-28T02:03:00;1.30;99.90
3528;DHT22;1778;47.966;7.854;2023-02-28T02:04:03;1.30;99.90
3528;DHT22;1778;47.966;7.854;2023-02-28T02:05:07;1.20;99.90
3528;DHT22;1778;47.966;7.854;2023-02-28T02:06:10;1.10;99.90
3528;DHT22;1778;47.966;7.854;2023-02-28T02:07:12;1.10;99.90
3528;DHT22;1778;47.966;7.854;2023-02-28T02:08:24;1.10;99.90
3528;DHT22;1778;47.966;7.854;2023-02-28T02:09:26;1.10;99.90
3528;DHT22;1778;47.966;7.854;2023-02-28T02:11:35;1.10;99.90
3528;DHT22;1778;47.966;7.854;2023-02-28T02:14:31;1.00;99.90
3528;DHT22;1778;47.966;7.854;2023-02-28T02:16:16;1.00;99.90
3528;DHT22;1778;47.966;7.854;2023-02-28T02:17:42;1.00;99.90
3528;DHT22;1778;47.966;7.854;2023-02-28T02:23:23;1.00;99.90
3528;DHT22;1778;47.966;7.854;2023-02-28T02:30:09;1.00;99.90
3528;DHT22;1778;47.966;7.854;2023-02-28T02:34:41;1.00;99.90
3528;DHT22;1778;47.966;7.854;2023-02-28T02:35:56;1.00;99.90
3528;DHT22;1778;47.966;7.854;2023-02-28T02:38:33;1.00;99.90
3528;DHT22;1778;47.966;7.854;2023-02-28T02:41:00;1.00;99.90
3528;DHT22;1778;47.966;7.854;2023-02-28T02:42:13;1.00;99.90
3528;DHT22;1778;47.966;7.854;2023-02-28T02:43:20;1.00;99.90
3528;DHT22;1778;47.966;7.854;2023-02-28T02:44:24;1.00;99.90
3528;DHT22;1778;47.966;7.854;2023-02-28T02:45:32;1.00;99.90
3528;DHT22;1778;47.966;7.854;2023-02-28T02:46:47;1.00;99.90
3528;DHT22;1778;47.966;7.854;2023-02-28T02:47:50;1.00;99.90
3528;DHT22;1778;47.966;7.854;2023-02-28T02:48:55;1.00;99.90
3528;DHT22;1778;47.966;7.854;2023-02-28T02:50:01;1.00;99.90
3528;DHT22;1778;47.966;7.854;2023-02-28T02:51:12;1.00;99.90
3528;DHT22;1778;47.966;7.854;2023-02-28T02:52:18;1.00;99.90
3528;DHT22;1778;47.966;7.854;2023-02-28T02:53:30;1.00;99.90
3528;DHT22;1778;47.966;7.854;2023-02-28T02:54:37;1.00;99.90
3528;DHT22;1778;47.966;7.854;2023-02-28T02:55:43;1.00;99.90
3528;DHT22;1778;47.966;7.854;2023-02-28T02:56:48;1.00;99.90
3528;DHT22;1778;47.966;7.854;2023-02-28T02:57:58;1.00;99.90
3528;DHT22;1778;47.966;7.854;2023-02-28T02:59:04;1.00;99.90
3528;DHT22;1778;47.966;7.854;2023-02-28T03:00:09;0.90;99.90
3528;DHT22;1778;47.966;7.854;2023-02-28T03:01:16;1.00;99.90
3528;DHT22;1778;47.966;7.854;2023-02-28T03:02:21;1.00;99.90
3528;DHT22;1778;47.966;7.854;2023-02-28T03:03:24;1.00;99.90
3528;DHT22;1778;47.966;7.854;2023-02-28T03:04:38;1.00;99.90
3528;DHT22;1778;47.966;7.854;2023-02-28T03:05:45;0.90;99.90
3528;DHT22;1778;47.966;7.854;2023-02-28T03:06:47;1.00;99.90
3528;DHT22;1778;47.966;7.854;2023-02-28T03:07:49;1.00;99.90
3528;DHT22;1778;47.966;7.854;2023-02-28T03:08:51;1.00;99.90
3528;DHT22;1778;47.966;7.854;2023-02-28T03:09:55;0.90;99.90
3528;DHT22;1778;47.966;7.854;2023-02-28T03:10:59;1.00;99.90
3528;DHT22;1778;47.966;7.854;2023-02-28T03:12:01;1.00;99.90
3528;DHT22;1778;47.966;7.854;2023-02-28T03:17:57;1.00;99.90
3528;DHT22;1778;47.966;7.854;2023-02-28T03:20:38;1.10;99.90
3528;DHT22;1778;47.966;7.854;2023-02-28T03:22:56;1.00;99.90
3528;DHT22;1778;47.966;7.854;2023-02-28T03:24:54;0.90;99.90
3528;DHT22;1778;47.966;7.854;2023-02-28T03:26:57;1.00;99.90
3528;DHT22;1778;47.966;7.854;2023-02-28T03:28:19;1.00;99.90
3528;DHT22;1778;47.966;7.854;2023-02-28T03:29:31;1.00;99.90
3528;DHT22;1778;47.966;7.854;2023-02-28T03:30:50;0.90;99.90
3528;DHT22;1778;47.966;7.854;2023-02-28T03:32:11;0.90;99.90
3528;DHT22;1778;47.966;7.854;2023-02-28T03:33:23;0.90;99.90
3528;DHT22;1778;47.966;7.854;2023-02-28T03:34:38;0.90;99.90
3528;DHT22;1778;47.966;7.854;2023-02-28T03:35:53;1.00;99.90
3528;DHT22;1778;47.966;7.854;2023-02-28T03:37:10;0.90;99.90
3528;DHT22;1778;47.966;7.854;2023-02-28T03:38:21;1.00;99.90
3528;DHT22;1778;47.966;7.854;2023-02-28T03:39:36;0.90;99.90
3528;DHT22;1778;47.966;7.854;2023-02-28T03:40:44;0.90;99.90
3528;DHT22;1778;47.966;7.854;2023-02-28T03:43:04;0.90;99.90
3528;DHT22;1778;47.966;7.854;2023-02-28T03:44:10;0.90;99.90
3528;DHT22;1778;47.966;7.854;2023-02-28T03:45:19;0.90;99.90
3528;DHT22;1778;47.966;7.854;2023-02-28T03:46:27;0.80;99.90
3528;DHT22;1778;47.966;7.854;2023-02-28T03:47:45;0.70;99.90
3528;DHT22;1778;47.966;7.854;2023-02-28T03:50:37;0.80;99.90
3528;DHT22;1778;47.966;7.854;2023-02-28T03:51:40;0.70;99.90
3528;DHT22;1778;47.966;7.854;2023-02-28T03:52:47;0.70;99.90
3528;DHT22;1778;47.966;7.854;2023-02-28T03:53:59;0.60;99.90
3528;DHT22;1778;47.966;7.854;2023-02-28T03:55:09;0.60;99.90
3528;DHT22;1778;47.966;7.854;2023-02-28T03:56:26;0.70;99.90
3528;DHT22;1778;47.966;7.854;2023-02-28T03:57:43;0.70;99.90
3528;DHT22;1778;47.966;7.854;2023-02-28T03:59:06;0.70;99.90
3528;DHT22;1778;47.966;7.854;2023-02-28T04:00:14;0.70;99.90
3528;DHT22;1778;47.966;7.854;2023-02-28T04:02:33;0.70;99.90
3528;DHT22;1778;47.966;7.854;2023-02-28T04:03:38;0.70;99.90
3528;DHT22;1778;47.966;7.854;2023-02-28T04:04:40;0.80;99.90
3528;DHT22;1778;47.966;7.854;2023-02-28T04:05:52;0.70;99.90
3528;DHT22;1778;47.966;7.854;2023-02-28T04:07:05;0.70;99.90
3528;DHT22;1778;47.966;7.854;2023-02-28T04:08:08;0.60;99.90
3528;DHT22;1778;47.966;7.854;2023-02-28T04:09:11;0.60;99.90
3528;DHT22;1778;47.966;7.854;2023-02-28T04:10:13;0.70;99.90
3528;DHT22;1778;47.966;7.854;2023-02-28T04:12:39;0.70;99.90
3528;DHT22;1778;47.966;7.854;2023-02-28T04:13:41;0.70;99.90
3528;DHT22;1778;47.966;7.854;2023-02-28T04:14:42;0.60;99.90
3528;DHT22;1778;47.966;7.854;2023-02-28T04:15:44;0.60;99.90
3528;DHT22;1778;47.966;7.854;2023-02-28T04:16:45;0.60;99.90
3528;DHT22;1778;47.966;7.854;2023-02-28T04:17:47;0.60;99.90
3528;DHT22;1778;47.966;7.854;2023-02-28T04:18:48;0.60;99.90
3528;DHT22;1778;47.966;7.854;2023-02-28T04:19:50;0.60;99.90
3528;DHT22;1778;47.966;7.854;2023-02-28T04:20:51;0.60;99.90
3528;DHT22;1778;47.966;7.854;2023-02-28T04:21:53;0.50;99.90
3528;DHT22;1778;47.966;7.854;2023-02-28T04:22:55;0.50;99.90
3528;DHT22;1778;47.966;7.854;2023-02-28T04:23:56;0.50;99.90
3528;DHT22;1778;47.966;7.854;2023-02-28T04:25:01;0.50;99.90
3528;DHT22;1778;47.966;7.854;2023-02-28T04:26:03;0.60;99.90
3528;DHT22;1778;47.966;7.854;2023-02-28T04:27:05;0.70;99.90
3528;DHT22;1778;47.966;7.854;2023-02-28T04:28:06;0.80;99.90
3528;DHT22;1778;47.966;7.854;2023-02-28T04:29:08;0.70;99.90
3528;DHT22;1778;47.966;7.854;2023-02-28T04:30:11;0.70;99.90
3528;DHT22;1778;47.966;7.854;2023-02-28T04:31:12;0.60;99.90
3528;DHT22;1778;47.966;7.854;2023-02-28T04:32:14;0.60;99.90
3528;DHT22;1778;47.966;7.854;2023-02-28T04:33:16;0.60;99.90
3528;DHT22;1778;47.966;7.854;2023-02-28T04:34:17;0.60;99.90
3528;DHT22;1778;47.966;7.854;2023-02-28T04:35:20;0.50;99.90
3528;DHT22;1778;47.966;7.854;2023-02-28T04:36:21;0.50;99.90
3528;DHT22;1778;47.966;7.854;2023-02-28T04:37:24;0.60;99.90
3528;DHT22;1778;47.966;7.854;2023-02-28T04:38:35;0.60;99.90
3528;DHT22;1778;47.966;7.854;2023-02-28T04:39:37;0.50;99.90
3528;DHT22;1778;47.966;7.854;2023-02-28T04:40:38;0.50;99.90
3528;DHT22;1778;47.966;7.854;2023-02-28T04:41:39;0.40;99.90
3528;DHT22;1778;47.966;7.854;2023-02-28T04:42:41;0.40;99.90
3528;DHT22;1778;47.966;7.854;2023-02-28T04:43:43;0.50;99.90
3528;DHT22;1778;47.966;7.854;2023-02-28T04:44:44;0.50;99.90
3528;DHT22;1778;47.966;7.854;2023-02-28T04:45:45;0.40;99.90
3528;DHT22;1778;47.966;7.854;2023-02-28T04:46:48;0.40;99.90
3528;DHT22;1778;47.966;7.854;2023-02-28T04:47:49;0.40;99.90
3528;DHT22;1778;47.966;7.854;2023-02-28T04:48:51;0.40;99.90
3528;DHT22;1778;47.966;7.854;2023-02-28T04:49:53;0.30;99.90
3528;DHT22;1778;47.966;7.854;2023-02-28T04:50:55;0.30;99.90
3528;DHT22;1778;47.966;7.854;2023-02-28T04:51:56;0.30;99.90
3528;DHT22;1778;47.966;7.854;2023-02-28T04:52:58;0.30;99.90
3528;DHT22;1778;47.966;7.854;2023-02-28T04:54:00;0.30;99.90
3528;DHT22;1778;47.966;7.854;2023-02-28T04:55:02;0.50;99.90
3528;DHT22;1778;47.966;7.854;2023-02-28T04:56:04;0.50;99.90
3528;DHT22;1778;47.966;7.854;2023-02-28T04:57:06;0.50;99.90
3528;DHT22;1778;47.966;7.854;2023-02-28T04:58:07;0.50;99.90
3528;DHT22;1778;47.966;7.854;2023-02-28T04:59:10;0.40;99.90
3528;DHT22;1778;47.966;7.854;2023-02-28T05:00:12;0.40;99.90
3528;DHT22;1778;47.966;7.854;2023-02-28T05:02:19;0.30;99.90
3528;DHT22;1778;47.966;7.854;2023-02-28T05:03:22;0.30;99.90
3528;DHT22;1778;47.966;7.854;2023-02-28T05:04:24;0.30;99.90
3528;DHT22;1778;47.966;7.854;2023-02-28T05:05:25;0.20;99.90
3528;DHT22;1778;47.966;7.854;2023-02-28T05:06:28;0.20;99.90
3528;DHT22;1778;47.966;7.854;2023-02-28T05:07:30;0.20;99.90
3528;DHT22;1778;47.966;7.854;2023-02-28T05:08:31;0.30;99.90
3528;DHT22;1778;47.966;7.854;2023-02-28T05:09:33;0.30;99.90
3528;DHT22;1778;47.966;7.854;2023-02-28T05:10:34;0.30;99.90
3528;DHT22;1778;47.966;7.854;2023-02-28T05:11:36;0.20;99.90
3528;DHT22;1778;47.966;7.854;2023-02-28T05:12:39;0.20;99.90
3528;DHT22;1778;47.966;7.854;2023-02-28T05:13:41;0.10;99.90
3528;DHT22;1778;47.966;7.854;2023-02-28T05:14:42;0.10;99.90
3528;DHT22;1778;47.966;7.854;2023-02-28T05:15:45;-0.10;99.90
3528;DHT22;1778;47.966;7.854;2023-02-28T05:16:46;0.00;99.90
3528;DHT22;1778;47.966;7.854;2023-02-28T05:17:48;0.10;99.90
3528;DHT22;1778;47.966;7.854;2023-02-28T05:18:49;0.10;99.90
3528;DHT22;1778;47.966;7.854;2023-02-28T05:19:51;0.00;99.90
3528;DHT22;1778;47.966;7.854;2023-02-28T05:20:53;-0.10;99.90
3528;DHT22;1778;47.966;7.854;2023-02-28T05:21:55;0.00;99.90
3528;DHT22;1778;47.966;7.854;2023-02-28T05:22:58;0.00;99.90
3528;DHT22;1778;47.966;7.854;2023-02-28T05:24:07;0.10;99.90
3528;DHT22;1778;47.966;7.854;2023-02-28T05:25:17;0.00;99.90
3528;DHT22;1778;47.966;7.854;2023-02-28T05:26:19;-0.10;99.90
3528;DHT22;1778;47.966;7.854;2023-02-28T05:27:21;-0.10;99.90
3528;DHT22;1778;47.966;7.854;2023-02-28T05:28:23;-0.10;99.90
3528;DHT22;1778;47.966;7.854;2023-02-28T05:29:24;-0.10;99.90
3528;DHT22;1778;47.966;7.854;2023-02-28T05:30:26;-0.10;99.90
3528;DHT22;1778;47.966;7.854;2023-02-28T05:31:28;-0.20;99.90
3528;DHT22;1778;47.966;7.854;2023-02-28T05:32:30;-0.20;99.90
3528;DHT22;1778;47.966;7.854;2023-02-28T05:33:31;-0.30;99.90
3528;DHT22;1778;47.966;7.854;2023-02-28T05:34:34;-0.30;99.90
3528;DHT22;1778;47.966;7.854;2023-02-28T05:35:38;-0.20;99.90
3528;DHT22;1778;47.966;7.854;2023-02-28T05:36:40;-0.20;99.90
3528;DHT22;1778;47.966;7.854;2023-02-28T05:37:42;-0.30;99.90
3528;DHT22;1778;47.966;7.854;2023-02-28T05:38:46;-0.30;99.90
3528;DHT22;1778;47.966;7.854;2023-02-28T05:39:49;-0.30;99.90
3528;DHT22;1778;47.966;7.854;2023-02-28T05:40:50;-0.30;99.90
3528;DHT22;1778;47.966;7.854;2023-02-28T05:41:53;-0.30;99.90
3528;DHT22;1778;47.966;7.854;2023-02-28T05:42:54;-0.40;99.90
3528;DHT22;1778;47.966;7.854;2023-02-28T05:43:57;-0.40;99.90
3528;DHT22;1778;47.966;7.854;2023-02-28T05:44:58;-0.50;99.90
3528;DHT22;1778;47.966;7.854;2023-02-28T05:46:06;-0.50;99.90
3528;DHT22;1778;47.966;7.854;2023-02-28T05:47:08;-0.40;99.90
3528;DHT22;1778;47.966;7.854;2023-02-28T05:48:09;-0.40;99.90
3528;DHT22;1778;47.966;7.854;2023-02-28T05:49:11;-0.50;99.90
3528;DHT22;1778;47.966;7.854;2023-02-28T05:50:13;-0.50;99.90
3528;DHT22;1778;47.966;7.854;2023-02-28T05:51:15;-0.50;99.90
3528;DHT22;1778;47.966;7.854;2023-02-28T05:52:17;-0.50;99.90
3528;DHT22;1778;47.966;7.854;2023-02-28T05:53:19;-0.60;99.90
3528;DHT22;1778;47.966;7.854;2023-02-28T05:54:20;-0.60;99.90
3528;DHT22;1778;47.966;7.854;2023-02-28T05:55:22;-0.60;99.90
3528;DHT22;1778;47.966;7.854;2023-02-28T05:56:24;-0.60;99.90
3528;DHT22;1778;47.966;7.854;2023-02-28T05:57:25;-0.60;99.90
3528;DHT22;1778;47.966;7.854;2023-02-28T05:58:27;-0.70;99.90
3528;DHT22;1778;47.966;7.854;2023-02-28T05:59:32;-0.70;99.90
3528;DHT22;1778;47.966;7.854;2023-02-28T06:00:34;-0.60;99.90
3528;DHT22;1778;47.966;7.854;2023-02-28T06:01:41;-0.70;99.90
3528;DHT22;1778;47.966;7.854;2023-02-28T06:02:43;-0.60;99.90
3528;DHT22;1778;47.966;7.854;2023-02-28T06:03:45;-0.60;99.90
3528;DHT22;1778;47.966;7.854;2023-02-28T06:04:47;-0.60;99.90
3528;DHT22;1778;47.966;7.854;2023-02-28T06:05:49;-0.60;99.90
3528;DHT22;1778;47.966;7.854;2023-02-28T06:06:51;-0.60;99.90
3528;DHT22;1778;47.966;7.854;2023-02-28T06:07:53;-0.60;99.90
3528;DHT22;1778;47.966;7.854;2023-02-28T06:08:56;-0.70;99.90
3528;DHT22;1778;47.966;7.854;2023-02-28T06:09:57;-0.70;99.90
3528;DHT22;1778;47.966;7.854;2023-02-28T06:11:03;-0.60;99.90
3528;DHT22;1778;47.966;7.854;2023-02-28T06:12:06;-0.70;99.90
3528;DHT22;1778;47.966;7.854;2023-02-28T06:13:08;-0.70;99.90
3528;DHT22;1778;47.966;7.854;2023-02-28T06:14:16;-0.70;99.90
3528;DHT22;1778;47.966;7.854;2023-02-28T06:15:17;-0.70;99.90
3528;DHT22;1778;47.966;7.854;2023-02-28T06:16:19;-0.70;99.90
3528;DHT22;1778;47.966;7.854;2023-02-28T06:17:20;-0.70;99.90
3528;DHT22;1778;47.966;7.854;2023-02-28T06:18:22;-0.80;99.90
3528;DHT22;1778;47.966;7.854;2023-02-28T06:19:24;-0.80;99.90
3528;DHT22;1778;47.966;7.854;2023-02-28T06:20:28;-0.90;99.90
3528;DHT22;1778;47.966;7.854;2023-02-28T06:21:31;-0.90;99.90
3528;DHT22;1778;47.966;7.854;2023-02-28T06:22:33;-0.80;99.90
3528;DHT22;1778;47.966;7.854;2023-02-28T06:23:34;-0.90;99.90
3528;DHT22;1778;47.966;7.854;2023-02-28T06:24:36;-1.00;99.90
3528;DHT22;1778;47.966;7.854;2023-02-28T06:25:37;-1.00;99.90
3528;DHT22;1778;47.966;7.854;2023-02-28T06:26:39;-0.90;99.90
3528;DHT22;1778;47.966;7.854;2023-02-28T06:27:41;-0.90;99.90
3528;DHT22;1778;47.966;7.854;2023-02-28T06:28:42;-0.90;99.90
3528;DHT22;1778;47.966;7.854;2023-02-28T06:29:44;-0.90;99.90
3528;DHT22;1778;47.966;7.854;2023-02-28T06:30:45;-0.80;99.90
3528;DHT22;1778;47.966;7.854;2023-02-28T06:31:47;-0.80;99.90
3528;DHT22;1778;47.966;7.854;2023-02-28T06:32:50;-0.80;99.90
3528;DHT22;1778;47.966;7.854;2023-02-28T06:33:51;-0.80;99.90
3528;DHT22;1778;47.966;7.854;2023-02-28T06:34:53;-0.90;99.90
3528;DHT22;1778;47.966;7.854;2023-02-28T06:35:54;-0.90;99.90
3528;DHT22;1778;47.966;7.854;2023-02-28T06:36:56;-0.90;99.90
3528;DHT22;1778;47.966;7.854;2023-02-28T06:37:58;-0.80;99.90
3528;DHT22;1778;47.966;7.854;2023-02-28T06:38:59;-0.80;99.90
3528;DHT22;1778;47.966;7.854;2023-02-28T06:40:01;-0.90;99.90
3528;DHT22;1778;47.966;7.854;2023-02-28T06:41:03;-0.90;99.90
3528;DHT22;1778;47.966;7.854;2023-02-28T06:42:05;-0.80;99.90
3528;DHT22;1778;47.966;7.854;2023-02-28T06:43:07;-0.80;99.90
3528;DHT22;1778;47.966;7.854;2023-02-28T06:44:13;-0.70;99.90
3528;DHT22;1778;47.966;7.854;2023-02-28T06:45:15;-0.70;99.90
3528;DHT22;1778;47.966;7.854;2023-02-28T06:46:16;-0.70;99.90
3528;DHT22;1778;47.966;7.854;2023-02-28T06:47:18;-0.70;99.90
3528;DHT22;1778;47.966;7.854;2023-02-28T06:48:19;-0.70;99.90
3528;DHT22;1778;47.966;7.854;2023-02-28T06:49:21;-0.70;99.90
3528;DHT22;1778;47.966;7.854;2023-02-28T06:50:22;-0.70;99.90
3528;DHT22;1778;47.966;7.854;2023-02-28T06:51:24;-0.70;99.90
3528;DHT22;1778;47.966;7.854;2023-02-28T06:52:25;-0.80;99.90
3528;DHT22;1778;47.966;7.854;2023-02-28T06:53:27;-0.70;99.90
3528;DHT22;1778;47.966;7.854;2023-02-28T06:54:28;-0.70;99.90
3528;DHT22;1778;47.966;7.854;2023-02-28T06:55:30;-0.70;99.90
3528;DHT22;1778;47.966;7.854;2023-02-28T06:56:32;-0.80;99.90
3528;DHT22;1778;47.966;7.854;2023-02-28T06:57:36;-0.80;99.90
3528;DHT22;1778;47.966;7.854;2023-02-28T06:58:38;-0.70;99.90
3528;DHT22;1778;47.966;7.854;2023-02-28T06:59:43;-0.60;99.90
3528;DHT22;1778;47.966;7.854;2023-02-28T07:00:45;-0.60;99.90
3528;DHT22;1778;47.966;7.854;2023-02-28T07:01:47;-0.60;99.90
3528;DHT22;1778;47.966;7.854;2023-02-28T07:02:48;-0.70;99.90
3528;DHT22;1778;47.966;7.854;2023-02-28T07:03:50;-0.70;99.90
3528;DHT22;1778;47.966;7.854;2023-02-28T07:04:54;-0.70;99.90
3528;DHT22;1778;47.966;7.854;2023-02-28T07:05:55;-0.60;99.90
3528;DHT22;1778;47.966;7.854;2023-02-28T07:07:00;-0.60;99.90
3528;DHT22;1778;47.966;7.854;2023-02-28T07:08:03;-0.70;99.90
3528;DHT22;1778;47.966;7.854;2023-02-28T07:09:04;-0.60;99.90
3528;DHT22;1778;47.966;7.854;2023-02-28T07:10:06;-0.60;99.90
3528;DHT22;1778;47.966;7.854;2023-02-28T07:11:08;-0.50;99.90
3528;DHT22;1778;47.966;7.854;2023-02-28T07:12:10;-0.60;99.90
3528;DHT22;1778;47.966;7.854;2023-02-28T07:13:12;-0.60;99.90
3528;DHT22;1778;47.966;7.854;2023-02-28T07:14:13;-0.50;99.90
3528;DHT22;1778;47.966;7.854;2023-02-28T07:15:15;-0.60;99.90
3528;DHT22;1778;47.966;7.854;2023-02-28T07:16:16;-0.60;99.90
3528;DHT22;1778;47.966;7.854;2023-02-28T07:17:18;-0.60;99.90
3528;DHT22;1778;47.966;7.854;2023-02-28T07:18:20;-0.50;99.90
3528;DHT22;1778;47.966;7.854;2023-02-28T07:19:22;-0.50;99.90
3528;DHT22;1778;47.966;7.854;2023-02-28T07:20:24;-0.60;99.90
3528;DHT22;1778;47.966;7.854;2023-02-28T07:21:25;-0.60;99.90
3528;DHT22;1778;47.966;7.854;2023-02-28T07:22:27;-0.50;99.90
3528;DHT22;1778;47.966;7.854;2023-02-28T07:23:29;-0.50;99.90
3528;DHT22;1778;47.966;7.854;2023-02-28T07:24:31;-0.50;99.90
3528;DHT22;1778;47.966;7.854;2023-02-28T07:25:33;-0.40;99.90
3528;DHT22;1778;47.966;7.854;2023-02-28T07:26:34;-0.40;99.90
3528;DHT22;1778;47.966;7.854;2023-02-28T07:27:36;-0.40;99.90
3528;DHT22;1778;47.966;7.854;2023-02-28T07:28:38;-0.40;99.90
3528;DHT22;1778;47.966;7.854;2023-02-28T07:29:40;-0.40;99.90
3528;DHT22;1778;47.966;7.854;2023-02-28T07:30:42;-0.40;99.90
3528;DHT22;1778;47.966;7.854;2023-02-28T07:31:43;-0.40;99.90
3528;DHT22;1778;47.966;7.854;2023-02-28T07:32:45;-0.30;99.90
3528;DHT22;1778;47.966;7.854;2023-02-28T07:33:47;-0.40;99.90
3528;DHT22;1778;47.966;7.854;2023-02-28T07:34:48;-0.30;99.90
3528;DHT22;1778;47.966;7.854;2023-02-28T07:35:50;-0.30;99.90